Vernon, Iowa
Current Conditions -  °F | °C
As of 11:55 PM on Thursday 27 Nov 2014 (Local Time) from KFFL Reporting Station
Overcast Overcast  
Wind Chill:   Ceiling: 12000
Heat Index: 14°   Visibility: 10mi
Dew Point:   Wind: 6mph
Humidity: 62%   Direction: 140°SE
Pressure: 30.35"   Gusts: NA
Location:  40.7687°N, 92.0788°W
Report Text: KFFL 280555Z AUTO 14005KT 10SM FEW085 OVC120 M10/M16 A3035 RMK AO2
Loading
Personal Weather Stations






























Interactive Weather Map New forecast layout! Learn more

10-Day Weather Forecast

Advertisements
Track Severe Weather on mobile